Uman, Ukraine
Current Conditions -  °F | °C
As of 9:00 PM on Friday 31 Oct 2014 (Local Time) from UKKK Reporting Station
Smoke Smoke  
Wind Chill: 32°   Ceiling: 10000
Heat Index: 37°   Visibility: 2.4mi
Dew Point: 30°   Wind: 7mph
Humidity: 75%   Direction: 330°NNW
Pressure: 30.18"   Gusts: NA
Location:  48.75°N, 30.22°E
Report Text: UKKK 311800Z 33003MPS 3900 FU FEW022 BKN100 03/M01 Q1022 26CLRD70 NOSIG
Loading
Personal Weather Stations






























Interactive Weather Map
Tropical Storm Tracking
New forecast layout! Learn more

10-Day Weather Forecast

Advertisements
Track Severe Weather on mobile